createdAt,value
2023-06-30T00:01:32.624Z,16.20
2023-06-30T00:04:06.895Z,16.20
2023-06-30T00:06:39.997Z,16.10
2023-06-30T00:09:16.967Z,16.10
2023-06-30T00:11:47.184Z,16.10
2023-06-30T00:14:16.309Z,16.10
2023-06-30T00:16:43.540Z,16.00
2023-06-30T00:19:10.266Z,15.90
2023-06-30T00:21:40.095Z,15.80
2023-06-30T00:24:15.881Z,15.80
2023-06-30T00:26:42.739Z,15.70
2023-06-30T00:29:09.516Z,15.70
2023-06-30T00:31:39.283Z,15.70
2023-06-30T00:34:08.809Z,15.70
2023-06-30T00:37:46.107Z,15.60
2023-06-30T00:39:34.555Z,15.60
2023-06-30T00:42:02.575Z,15.50
2023-06-30T00:44:31.637Z,15.50
2023-06-30T00:47:01.279Z,15.50
2023-06-30T00:49:29.018Z,15.40
2023-06-30T00:51:55.743Z,15.40
2023-06-30T00:54:22.583Z,15.40
2023-06-30T00:56:49.412Z,15.30
2023-06-30T00:59:16.208Z,15.30
2023-06-30T01:01:51.342Z,15.30
2023-06-30T01:04:29.646Z,15.30
2023-06-30T01:07:07.542Z,15.30
2023-06-30T01:09:43.699Z,15.20
2023-06-30T01:12:10.369Z,15.20
2023-06-30T01:14:39.596Z,15.20
2023-06-30T01:17:08.954Z,15.20
2023-06-30T01:19:39.175Z,15.10
2023-06-30T01:22:27.226Z,15.10
2023-06-30T01:24:56.963Z,15.00
2023-06-30T01:27:23.722Z,15.00
2023-06-30T01:29:51.967Z,14.90
2023-06-30T01:32:18.770Z,14.90
2023-06-30T01:34:45.954Z,14.90
2023-06-30T01:37:13.350Z,14.80
2023-06-30T01:39:42.504Z,14.80
2023-06-30T01:42:09.520Z,14.70
2023-06-30T01:44:40.552Z,14.70
2023-06-30T01:47:08.780Z,14.70
2023-06-30T01:49:35.852Z,14.70
2023-06-30T01:52:02.875Z,14.70
2023-06-30T01:54:29.717Z,14.70
2023-06-30T01:56:56.585Z,14.60
2023-06-30T01:59:23.552Z,14.60
2023-06-30T02:01:50.362Z,14.60
2023-06-30T02:04:17.360Z,14.60
2023-06-30T02:06:44.486Z,14.50
2023-06-30T02:09:12.544Z,14.50
2023-06-30T02:11:39.969Z,14.50
2023-06-30T02:14:07.205Z,14.50
2023-06-30T02:16:37.080Z,14.50
2023-06-30T02:19:05.800Z,14.50
2023-06-30T02:21:32.525Z,14.40
2023-06-30T02:23:59.245Z,14.40
2023-06-30T02:26:25.977Z,14.40
2023-06-30T02:28:52.674Z,14.40
2023-06-30T02:31:19.549Z,14.40
2023-06-30T02:33:46.434Z,14.40
2023-06-30T02:36:13.235Z,14.30
2023-06-30T02:38:40.137Z,14.30
2023-06-30T02:41:11.486Z,14.30
2023-06-30T02:43:43.765Z,14.30
2023-06-30T02:46:11.193Z,14.30
2023-06-30T02:48:42.549Z,14.20
2023-06-30T02:51:09.466Z,14.20
2023-06-30T02:53:38.590Z,14.20
2023-06-30T02:56:07.914Z,14.20
2023-06-30T02:58:34.850Z,14.10
2023-06-30T03:01:01.720Z,14.10
2023-06-30T03:03:28.698Z,14.10
2023-06-30T03:05:55.553Z,14.10
2023-06-30T03:08:22.410Z,14.10
2023-06-30T03:10:50.870Z,14.10
2023-06-30T03:13:19.554Z,14.00
2023-06-30T03:15:46.738Z,14.00
2023-06-30T03:18:16.419Z,14.00
2023-06-30T03:20:45.877Z,13.90
2023-06-30T03:23:17.794Z,13.90
2023-06-30T03:25:44.657Z,13.90
2023-06-30T03:28:11.587Z,13.90
2023-06-30T03:30:38.440Z,13.90
2023-06-30T03:33:06.258Z,13.80
2023-06-30T03:35:33.020Z,13.80
2023-06-30T03:37:59.796Z,13.80
2023-06-30T03:40:26.744Z,13.80
2023-06-30T03:42:54.807Z,13.80
2023-06-30T03:45:21.655Z,13.70
2023-06-30T03:47:48.393Z,13.70
2023-06-30T03:50:15.128Z,13.70
2023-06-30T03:52:41.916Z,13.70
2023-06-30T03:55:08.923Z,13.70
2023-06-30T03:57:35.753Z,13.70
2023-06-30T04:00:02.513Z,13.70
2023-06-30T04:02:29.312Z,13.70
2023-06-30T04:04:56.142Z,13.70
2023-06-30T04:07:22.925Z,13.70
2023-06-30T04:09:49.700Z,13.70
2023-06-30T04:12:19.295Z,13.70
2023-06-30T04:14:47.278Z,13.70
2023-06-30T04:17:14.241Z,13.60
2023-06-30T04:19:45.103Z,13.70
2023-06-30T04:22:13.862Z,13.70
2023-06-30T04:25:01.728Z,13.70
2023-06-30T04:27:28.610Z,13.70
2023-06-30T04:29:55.524Z,13.70
2023-06-30T04:32:22.366Z,13.70
2023-06-30T04:34:49.109Z,13.70
2023-06-30T04:37:16.047Z,13.70
2023-06-30T04:39:42.834Z,13.70
2023-06-30T04:42:09.684Z,13.80
2023-06-30T04:44:39.512Z,13.80
2023-06-30T04:47:09.357Z,13.80
2023-06-30T04:49:36.072Z,13.90
2023-06-30T04:52:30.043Z,13.90
2023-06-30T04:54:50.608Z,14.00
2023-06-30T04:57:17.380Z,14.10
2023-06-30T04:59:51.540Z,14.20
2023-06-30T05:02:18.862Z,14.30
2023-06-30T05:04:45.663Z,14.50
2023-06-30T05:07:12.387Z,14.60
2023-06-30T05:09:39.060Z,14.70
2023-06-30T05:12:06.105Z,14.70
2023-06-30T05:14:32.769Z,14.70
2023-06-30T05:16:59.519Z,14.80
2023-06-30T05:19:26.261Z,14.80
2023-06-30T05:21:52.927Z,14.80
2023-06-30T05:24:19.577Z,14.80
2023-06-30T05:26:46.249Z,14.80
2023-06-30T05:29:12.907Z,14.90
2023-06-30T05:31:39.703Z,14.90
2023-06-30T05:34:06.444Z,14.90
2023-06-30T05:36:34.922Z,15.00
2023-06-30T05:39:02.358Z,15.00
2023-06-30T05:41:29.012Z,15.10
2023-06-30T05:43:55.702Z,15.10
2023-06-30T05:46:22.419Z,15.20
2023-06-30T05:48:49.164Z,15.20
2023-06-30T05:51:15.928Z,15.30
2023-06-30T05:53:42.609Z,15.40
2023-06-30T05:56:09.237Z,15.40
2023-06-30T05:58:35.914Z,15.50
2023-06-30T06:01:03.041Z,15.50
2023-06-30T06:03:37.589Z,15.60
2023-06-30T06:06:05.159Z,15.70
2023-06-30T06:08:31.873Z,15.70
2023-06-30T06:10:58.666Z,15.80
2023-06-30T06:13:51.740Z,15.90
2023-06-30T06:16:20.635Z,15.90
2023-06-30T06:18:48.970Z,16.00
2023-06-30T06:21:17.696Z,16.10
2023-06-30T06:23:44.638Z,16.10
2023-06-30T06:26:11.470Z,16.20
2023-06-30T06:28:38.183Z,16.30
2023-06-30T06:31:05.048Z,16.30
2023-06-30T06:33:31.754Z,16.30
2023-06-30T06:35:58.484Z,16.40
2023-06-30T06:38:25.148Z,16.50
2023-06-30T06:40:51.971Z,16.50
2023-06-30T06:43:18.914Z,16.60
2023-06-30T06:45:47.109Z,16.60
2023-06-30T06:48:27.853Z,16.70
2023-06-30T06:51:05.675Z,16.80
2023-06-30T06:53:33.592Z,16.80
2023-06-30T06:56:17.194Z,16.90
2023-06-30T06:58:43.932Z,16.90
2023-06-30T07:01:11.165Z,17.00
2023-06-30T07:03:37.823Z,17.00
2023-06-30T07:06:04.548Z,17.10
2023-06-30T07:08:31.215Z,17.20
2023-06-30T07:10:58.095Z,17.30
2023-06-30T07:13:24.754Z,17.60
2023-06-30T07:15:51.650Z,18.00
2023-06-30T07:18:18.737Z,18.40
2023-06-30T07:20:47.107Z,18.70
2023-06-30T07:23:13.900Z,18.90
2023-06-30T07:25:40.578Z,19.20
2023-06-30T07:28:07.416Z,19.40
2023-06-30T07:30:34.080Z,19.70
2023-06-30T07:33:00.762Z,19.90
2023-06-30T07:35:27.565Z,20.10
2023-06-30T07:37:54.264Z,20.10
2023-06-30T07:40:23.721Z,20.20
2023-06-30T07:42:50.944Z,20.30
2023-06-30T07:45:17.977Z,20.50
2023-06-30T07:47:45.753Z,20.80
2023-06-30T07:50:13.916Z,21.00
2023-06-30T07:52:42.216Z,21.20
2023-06-30T07:55:11.300Z,21.50
2023-06-30T07:57:37.973Z,21.70
2023-06-30T08:00:05.062Z,22.00
2023-06-30T08:02:32.092Z,22.20
2023-06-30T08:04:58.968Z,22.30
2023-06-30T08:07:47.971Z,22.40
2023-06-30T08:10:12.410Z,22.50
2023-06-30T08:12:39.149Z,22.60
2023-06-30T08:15:06.398Z,22.80
2023-06-30T08:17:50.723Z,22.90
2023-06-30T08:20:19.828Z,22.90
2023-06-30T08:22:47.194Z,23.00
2023-06-30T08:25:13.938Z,23.00
2023-06-30T08:27:40.588Z,22.90
2023-06-30T08:30:07.997Z,22.90
2023-06-30T08:32:34.810Z,23.00
2023-06-30T08:35:01.520Z,23.00
2023-06-30T08:37:28.355Z,23.10
2023-06-30T08:39:55.039Z,23.30
2023-06-30T08:42:22.071Z,23.30
2023-06-30T08:44:48.738Z,23.40
2023-06-30T08:47:15.400Z,23.40
2023-06-30T08:49:42.135Z,23.50
2023-06-30T08:52:08.962Z,23.60
2023-06-30T08:54:35.640Z,23.60
2023-06-30T08:57:02.403Z,23.50
2023-06-30T08:59:29.083Z,23.30
2023-06-30T09:01:56.508Z,23.10
2023-06-30T09:04:23.876Z,23.10
2023-06-30T09:06:50.540Z,23.00
2023-06-30T09:09:28.416Z,23.00
2023-06-30T09:11:55.052Z,23.10
2023-06-30T09:14:22.996Z,23.30
2023-06-30T09:16:49.693Z,23.50
2023-06-30T09:19:16.495Z,23.60
2023-06-30T09:21:43.204Z,23.80
2023-06-30T09:24:09.983Z,23.90
2023-06-30T09:26:36.689Z,23.90
2023-06-30T09:29:03.344Z,23.90
2023-06-30T09:31:31.516Z,24.00
2023-06-30T09:34:11.673Z,24.20
2023-06-30T09:36:48.365Z,24.40
2023-06-30T09:39:15.072Z,24.50
2023-06-30T09:41:45.385Z,24.80
2023-06-30T09:44:12.430Z,25.00
2023-06-30T09:46:49.254Z,25.20
2023-06-30T09:49:25.240Z,25.20
2023-06-30T09:51:52.434Z,25.10
2023-06-30T09:54:26.056Z,24.90
2023-06-30T09:57:05.434Z,24.80
2023-06-30T09:59:32.392Z,24.60
2023-06-30T10:01:59.631Z,24.60
2023-06-30T10:04:26.705Z,24.70
2023-06-30T10:06:53.516Z,25.10
2023-06-30T10:09:21.670Z,25.50
2023-06-30T10:11:54.264Z,25.90
2023-06-30T10:14:21.402Z,26.20
2023-06-30T10:16:48.417Z,26.50
2023-06-30T10:19:15.521Z,26.70
2023-06-30T10:21:42.636Z,26.90
2023-06-30T10:24:09.637Z,27.10
2023-06-30T10:26:37.122Z,27.40
2023-06-30T10:29:04.336Z,27.50
2023-06-30T10:31:32.106Z,27.70
2023-06-30T10:33:58.809Z,28.00
2023-06-30T10:36:25.549Z,28.20
2023-06-30T10:38:52.184Z,28.30
2023-06-30T10:41:20.095Z,28.40
2023-06-30T10:44:08.686Z,28.20
2023-06-30T10:46:56.607Z,27.80
2023-06-30T10:49:30.908Z,27.40
2023-06-30T10:52:26.761Z,27.40
2023-06-30T10:54:53.540Z,27.40
2023-06-30T10:57:27.247Z,27.10
2023-06-30T11:00:06.717Z,26.80
2023-06-30T11:02:34.024Z,26.50
2023-06-30T11:05:22.449Z,26.10
2023-06-30T11:07:53.567Z,25.70
2023-06-30T11:10:27.170Z,25.50
2023-06-30T11:12:57.345Z,25.60
2023-06-30T11:15:50.443Z,25.80
2023-06-30T11:18:22.592Z,25.90
2023-06-30T11:20:59.344Z,25.80
2023-06-30T11:23:30.046Z,25.80
2023-06-30T11:25:57.140Z,25.70
2023-06-30T11:28:25.398Z,25.70
2023-06-30T11:30:52.075Z,25.60
2023-06-30T11:33:18.750Z,25.50
2023-06-30T11:35:49.713Z,25.30
2023-06-30T11:38:16.447Z,25.20
2023-06-30T11:40:47.373Z,25.30
2023-06-30T11:43:14.394Z,25.50
2023-06-30T11:45:41.115Z,25.80
2023-06-30T11:48:07.807Z,26.00
2023-06-30T11:50:34.654Z,26.00
2023-06-30T11:53:04.065Z,26.10
2023-06-30T11:55:30.749Z,26.30
2023-06-30T11:57:57.432Z,26.60
2023-06-30T12:00:24.881Z,26.70
2023-06-30T12:02:52.889Z,26.80
2023-06-30T12:05:27.024Z,26.70
2023-06-30T12:07:56.895Z,26.80
2023-06-30T12:10:38.019Z,27.10
2023-06-30T12:13:07.095Z,27.50
2023-06-30T12:15:33.764Z,27.70
2023-06-30T12:18:02.360Z,27.80
2023-06-30T12:20:36.629Z,27.90
2023-06-30T12:23:04.372Z,27.90
2023-06-30T12:25:32.233Z,27.70
2023-06-30T12:27:58.879Z,27.70
2023-06-30T12:30:28.087Z,27.90
2023-06-30T12:32:58.031Z,27.90
2023-06-30T12:35:38.361Z,27.90
2023-06-30T12:38:05.070Z,27.70
2023-06-30T12:40:31.783Z,27.30
2023-06-30T12:42:58.578Z,27.20
2023-06-30T12:45:25.217Z,27.30
2023-06-30T12:47:51.934Z,27.40
2023-06-30T12:50:18.677Z,27.40
2023-06-30T12:52:45.365Z,27.30
2023-06-30T12:55:12.610Z,27.10
2023-06-30T12:57:39.429Z,26.80
2023-06-30T13:00:06.795Z,26.60
2023-06-30T13:02:34.125Z,26.50
2023-06-30T13:05:00.988Z,26.20
2023-06-30T13:07:27.750Z,26.10
2023-06-30T13:09:54.471Z,25.80
2023-06-30T13:12:21.192Z,25.70
2023-06-30T13:14:47.890Z,25.50
2023-06-30T13:17:14.582Z,25.40
2023-06-30T13:19:41.267Z,25.30
2023-06-30T13:22:08.047Z,25.20
2023-06-30T13:24:34.779Z,25.20
2023-06-30T13:27:01.465Z,25.20
2023-06-30T13:29:28.146Z,25.30
2023-06-30T13:31:55.203Z,25.50
2023-06-30T13:34:21.882Z,25.80
2023-06-30T13:36:48.524Z,26.00
2023-06-30T13:39:15.240Z,26.30
2023-06-30T13:41:42.853Z,26.30
2023-06-30T13:44:09.511Z,26.30
2023-06-30T13:46:36.493Z,26.10
2023-06-30T13:49:03.200Z,26.10
2023-06-30T13:51:29.958Z,26.10
2023-06-30T13:53:56.634Z,26.20
2023-06-30T13:56:24.775Z,26.50
2023-06-30T13:58:51.504Z,26.80
2023-06-30T14:01:18.347Z,27.00
2023-06-30T14:03:45.151Z,27.00
2023-06-30T14:06:12.030Z,27.00
2023-06-30T14:08:38.822Z,26.90
2023-06-30T14:11:05.615Z,26.80
2023-06-30T14:13:32.361Z,26.90
2023-06-30T14:15:59.040Z,27.00
2023-06-30T14:18:25.704Z,26.80
2023-06-30T14:20:52.366Z,26.50
2023-06-30T14:23:19.116Z,26.30
2023-06-30T14:25:45.951Z,26.10
2023-06-30T14:28:12.968Z,26.00
2023-06-30T14:30:39.651Z,26.00
2023-06-30T14:33:06.442Z,26.10
2023-06-30T14:35:33.195Z,26.30
2023-06-30T14:37:59.895Z,26.50
2023-06-30T14:40:26.668Z,26.60
2023-06-30T14:42:53.367Z,26.70
2023-06-30T14:45:20.244Z,26.70
2023-06-30T14:47:47.032Z,26.60
2023-06-30T14:50:13.702Z,26.40
2023-06-30T14:52:40.376Z,26.30
2023-06-30T14:55:07.390Z,26.20
2023-06-30T14:57:34.065Z,26.10
2023-06-30T15:00:00.708Z,26.10
2023-06-30T15:02:27.480Z,26.10
2023-06-30T15:04:54.239Z,26.20
2023-06-30T15:07:20.928Z,26.30
2023-06-30T15:09:47.676Z,26.50
2023-06-30T15:12:15.739Z,26.50
2023-06-30T15:14:42.507Z,26.50
2023-06-30T15:17:09.172Z,26.60
2023-06-30T15:19:35.917Z,26.70
2023-06-30T15:22:05.812Z,26.80
2023-06-30T15:24:32.513Z,26.80
2023-06-30T15:26:59.409Z,26.80
2023-06-30T15:29:26.079Z,26.90
2023-06-30T15:31:55.120Z,26.80
2023-06-30T15:34:22.414Z,26.80
2023-06-30T15:36:49.122Z,26.80
2023-06-30T15:39:15.837Z,26.70
2023-06-30T15:41:42.512Z,26.70
2023-06-30T15:44:09.223Z,26.70
2023-06-30T15:46:36.579Z,26.80
2023-06-30T15:49:05.059Z,26.90
2023-06-30T15:51:34.849Z,27.10
2023-06-30T15:54:01.724Z,27.10
2023-06-30T15:56:28.405Z,27.10
2023-06-30T15:58:55.061Z,27.10
2023-06-30T16:01:21.804Z,27.00
2023-06-30T16:03:48.728Z,27.00
2023-06-30T16:06:15.571Z,26.90
2023-06-30T16:08:42.305Z,26.70
2023-06-30T16:11:08.969Z,26.60
2023-06-30T16:13:35.628Z,26.50
2023-06-30T16:16:02.339Z,26.40
2023-06-30T16:18:29.085Z,26.30
2023-06-30T16:20:55.734Z,26.30
2023-06-30T16:23:22.405Z,26.20
2023-06-30T16:25:49.468Z,26.00
2023-06-30T16:28:16.506Z,25.90
2023-06-30T16:30:43.389Z,25.80
2023-06-30T16:33:10.315Z,25.90
2023-06-30T16:35:37.320Z,26.00
2023-06-30T16:38:04.128Z,26.10
2023-06-30T16:40:31.169Z,26.20
2023-06-30T16:42:58.041Z,26.30
2023-06-30T16:45:26.086Z,26.30
2023-06-30T16:47:52.907Z,26.10
2023-06-30T16:50:19.879Z,25.90
2023-06-30T16:52:46.761Z,25.70
2023-06-30T17:00:49.112Z,24.90
2023-06-30T17:03:16.023Z,24.70
2023-06-30T17:05:42.894Z,24.60
2023-06-30T17:08:09.666Z,24.50
2023-06-30T17:10:39.604Z,24.50
2023-06-30T17:13:17.920Z,24.40
2023-06-30T17:15:45.140Z,24.30
2023-06-30T17:18:12.301Z,24.20
2023-06-30T17:20:39.107Z,24.20
2023-06-30T17:23:05.872Z,24.10
2023-06-30T17:25:32.827Z,24.10
2023-06-30T17:27:59.592Z,24.00
2023-06-30T17:30:28.860Z,23.90
2023-06-30T17:32:55.584Z,23.70
2023-06-30T17:35:22.315Z,23.70
2023-06-30T17:37:48.981Z,23.70
2023-06-30T17:40:15.732Z,23.70
2023-06-30T17:42:42.493Z,23.60
2023-06-30T17:45:09.530Z,23.50
2023-06-30T17:47:36.322Z,23.40
2023-06-30T17:50:04.440Z,23.30
2023-06-30T17:52:31.368Z,23.20
2023-06-30T17:54:58.117Z,23.20
2023-06-30T17:57:24.904Z,23.10
2023-06-30T17:59:51.623Z,23.00
2023-06-30T18:02:18.541Z,23.00
2023-06-30T18:04:46.089Z,23.00
2023-06-30T18:07:13.240Z,23.00
2023-06-30T18:09:43.967Z,23.00
2023-06-30T18:12:11.119Z,22.90
2023-06-30T18:14:38.487Z,22.90
2023-06-30T18:17:07.883Z,22.90
2023-06-30T18:19:34.576Z,22.80
2023-06-30T18:22:01.331Z,22.80
2023-06-30T18:24:28.085Z,22.80
2023-06-30T18:26:54.829Z,22.80
2023-06-30T18:29:22.659Z,22.80
2023-06-30T18:31:53.538Z,22.70
2023-06-30T18:34:20.798Z,22.50
2023-06-30T18:36:47.734Z,22.50
2023-06-30T18:39:14.647Z,22.40
2023-06-30T18:41:41.506Z,22.40
2023-06-30T18:44:08.238Z,22.40
2023-06-30T18:46:38.533Z,22.40
2023-06-30T18:49:06.032Z,22.40
2023-06-30T18:51:33.592Z,22.40
2023-06-30T18:54:03.294Z,22.30
2023-06-30T18:56:30.189Z,22.30
2023-06-30T18:58:59.665Z,22.30
2023-06-30T19:01:26.911Z,22.20
2023-06-30T19:03:54.070Z,22.10
2023-06-30T19:06:21.670Z,22.00
2023-06-30T19:08:48.616Z,21.90
2023-06-30T19:11:15.287Z,21.80
2023-06-30T19:13:42.013Z,21.80
2023-06-30T19:16:08.754Z,21.80
2023-06-30T19:18:36.026Z,21.80
2023-06-30T19:21:06.626Z,21.70
2023-06-30T19:23:33.389Z,21.70
2023-06-30T19:26:00.152Z,21.60
2023-06-30T19:28:26.844Z,21.60
2023-06-30T19:30:53.579Z,21.60
2023-06-30T19:33:20.410Z,21.50
2023-06-30T19:35:47.316Z,21.50
2023-06-30T19:38:14.143Z,21.40
2023-06-30T19:40:40.964Z,21.40
2023-06-30T19:43:07.648Z,21.30
2023-06-30T19:45:34.429Z,21.30
2023-06-30T19:48:01.202Z,21.20
2023-06-30T19:50:27.947Z,21.20
2023-06-30T19:52:54.959Z,21.10
2023-06-30T19:55:27.185Z,21.10
2023-06-30T19:57:59.197Z,21.10
2023-06-30T20:00:26.176Z,21.10
2023-06-30T20:02:53.019Z,21.00
2023-06-30T20:05:19.968Z,21.10
2023-06-30T20:07:46.792Z,21.00
2023-06-30T20:10:13.492Z,21.00
2023-06-30T20:12:40.458Z,21.00
2023-06-30T20:15:10.935Z,21.00
2023-06-30T20:17:37.867Z,21.00
2023-06-30T20:20:05.615Z,21.00
2023-06-30T20:22:32.336Z,20.90
2023-06-30T20:24:59.056Z,20.90
2023-06-30T20:27:25.867Z,20.80
2023-06-30T20:29:52.575Z,20.80
2023-06-30T20:32:19.277Z,20.80
2023-06-30T20:34:45.938Z,20.70
2023-06-30T20:37:12.705Z,20.70
2023-06-30T20:39:39.375Z,20.70
2023-06-30T20:42:07.023Z,20.70
2023-06-30T20:44:34.334Z,20.70
2023-06-30T20:47:01.024Z,20.70
2023-06-30T20:49:27.677Z,20.70
2023-06-30T20:51:55.309Z,20.70
2023-06-30T20:54:23.538Z,20.60
2023-06-30T20:56:50.199Z,20.60
2023-06-30T20:59:17.008Z,20.50
2023-06-30T21:01:43.674Z,20.60
2023-06-30T21:04:10.543Z,20.60
2023-06-30T21:06:37.209Z,20.60
2023-06-30T21:09:03.907Z,20.60
2023-06-30T21:11:30.556Z,20.60
2023-06-30T21:13:57.248Z,20.60
2023-06-30T21:16:24.001Z,20.60
2023-06-30T21:18:50.744Z,20.60
2023-06-30T21:21:17.428Z,20.60
2023-06-30T21:23:44.123Z,20.60
2023-06-30T21:26:12.009Z,20.60
2023-06-30T21:28:39.190Z,20.60
2023-06-30T21:31:05.891Z,20.60
2023-06-30T21:33:32.671Z,20.60
2023-06-30T21:35:59.445Z,20.50
2023-06-30T21:38:26.083Z,20.50
2023-06-30T21:40:52.776Z,20.50
2023-06-30T21:43:19.445Z,20.50
2023-06-30T21:45:46.298Z,20.50
2023-06-30T21:48:13.898Z,20.50
2023-06-30T21:50:40.767Z,20.50
2023-06-30T21:53:07.408Z,20.50
2023-06-30T21:55:34.179Z,20.40
2023-06-30T21:58:02.659Z,20.40
2023-06-30T22:00:29.569Z,20.40
2023-06-30T22:02:56.522Z,20.40
2023-06-30T22:05:23.240Z,20.30
2023-06-30T22:07:50.021Z,20.30
2023-06-30T22:10:16.948Z,20.30
2023-06-30T22:12:47.324Z,20.20
2023-06-30T22:15:14.156Z,20.20
2023-06-30T22:17:40.963Z,20.20
2023-06-30T22:20:08.129Z,20.20
2023-06-30T22:22:34.999Z,20.20
2023-06-30T22:25:03.668Z,20.10
2023-06-30T22:27:30.433Z,20.20
2023-06-30T22:29:57.211Z,20.20
2023-06-30T22:32:24.042Z,20.20
2023-06-30T22:34:55.722Z,20.10
2023-06-30T22:37:22.406Z,20.10
2023-06-30T22:39:49.112Z,20.10
2023-06-30T22:42:15.909Z,20.00
2023-06-30T22:44:42.628Z,20.00
2023-06-30T22:47:09.575Z,20.00
2023-06-30T22:49:39.624Z,20.00
2023-06-30T22:52:07.062Z,20.00
2023-06-30T22:54:34.267Z,20.00
2023-06-30T22:57:01.105Z,20.10
2023-06-30T22:59:27.849Z,20.10
2023-06-30T23:01:54.677Z,20.00
2023-06-30T23:04:21.610Z,20.00
2023-06-30T23:06:48.372Z,20.10
2023-06-30T23:09:15.149Z,20.10
2023-06-30T23:11:41.923Z,20.10
2023-06-30T23:14:12.049Z,20.10
2023-06-30T23:16:38.862Z,20.10
2023-06-30T23:19:09.178Z,20.10
2023-06-30T23:21:36.847Z,20.00
2023-06-30T23:24:07.393Z,19.90
2023-06-30T23:26:36.549Z,19.80
2023-06-30T23:29:03.362Z,19.70
2023-06-30T23:31:30.184Z,19.60
2023-06-30T23:33:57.153Z,19.30
2023-06-30T23:36:23.942Z,18.90
2023-06-30T23:38:51.083Z,18.60
2023-06-30T23:41:17.827Z,18.40
2023-06-30T23:43:44.615Z,18.30
2023-06-30T23:46:18.484Z,18.20
2023-06-30T23:48:48.417Z,18.10
2023-06-30T23:51:15.231Z,18.00
2023-06-30T23:53:42.028Z,17.90
2023-06-30T23:56:08.945Z,17.70
2023-06-30T23:58:35.804Z,17.60
